createdAt,value
2018-02-22T18:00:55.994Z,22.47
2018-02-22T18:03:25.430Z,18.17
2018-02-22T18:05:53.630Z,11.90
2018-02-22T18:08:22.216Z,15.23
2018-02-22T18:10:51.268Z,21.27
2018-02-22T18:13:19.437Z,10.90
2018-02-22T18:15:47.667Z,13.10
2018-02-22T18:18:16.610Z,11.70
2018-02-22T18:20:44.836Z,13.00
2018-02-22T18:23:12.978Z,11.70
2018-02-22T18:25:41.920Z,12.33
2018-02-22T18:28:10.156Z,11.90
2018-02-22T18:30:40.980Z,13.90
2018-02-22T18:33:09.380Z,15.53
2018-02-22T18:35:37.538Z,13.73
2018-02-22T18:38:05.703Z,14.03
2018-02-22T18:40:39.623Z,13.97
2018-02-22T18:43:14.377Z,13.30
2018-02-22T18:45:42.737Z,15.20
2018-02-22T18:48:10.967Z,16.80
2018-02-22T18:50:39.161Z,15.03
2018-02-22T18:53:07.501Z,14.37
2018-02-22T18:55:35.667Z,16.03
2018-02-22T18:58:03.826Z,15.60
2018-02-22T19:00:31.968Z,14.77
2018-02-22T19:03:01.059Z,15.30
2018-02-22T19:05:29.398Z,15.93
2018-02-22T19:07:57.573Z,16.70
2018-02-22T19:10:25.730Z,16.53
2018-02-22T19:12:53.899Z,21.33
2018-02-22T19:15:22.381Z,18.27
2018-02-22T19:17:50.547Z,16.90
2018-02-22T19:20:18.833Z,15.60
2018-02-22T19:22:46.995Z,16.00
2018-02-22T19:25:15.197Z,15.77
2018-02-22T19:27:43.929Z,16.73
2018-02-22T19:30:12.869Z,18.07
2018-02-22T19:32:41.114Z,19.73
2018-02-22T19:35:10.187Z,18.97
2018-02-22T19:37:38.360Z,19.30
2018-02-22T19:40:06.676Z,20.50
2018-02-22T19:42:34.859Z,19.57
2018-02-22T19:45:03.281Z,20.00
2018-02-22T19:47:31.455Z,22.10
2018-02-22T19:49:59.642Z,22.23
2018-02-22T19:52:28.585Z,21.33
2018-02-22T19:54:56.822Z,19.83
2018-02-22T19:57:25.871Z,22.07
2018-02-22T19:59:54.108Z,20.53
2018-02-22T20:04:56.841Z,21.17
2018-02-22T20:07:25.009Z,20.03
2018-02-22T20:09:53.181Z,21.53
2018-02-22T20:12:21.436Z,20.50
2018-02-22T20:14:51.197Z,23.03
2018-02-22T20:17:19.503Z,23.60
2018-02-22T20:19:48.343Z,21.70
2018-02-22T20:22:17.468Z,23.00
2018-02-22T20:24:46.225Z,24.70
2018-02-22T20:27:14.406Z,24.17
2018-02-22T20:29:42.582Z,25.37
2018-02-22T20:32:10.757Z,25.60
2018-02-22T20:34:38.943Z,23.97
2018-02-22T20:37:07.118Z,23.20
2018-02-22T20:39:35.390Z,24.70
2018-02-22T20:42:03.643Z,27.73
2018-02-22T20:44:32.576Z,24.83
2018-02-22T20:47:01.549Z,26.50
2018-02-22T20:49:30.505Z,26.13
2018-02-22T20:51:58.715Z,27.27
2018-02-22T20:54:28.387Z,25.50
2018-02-22T20:56:56.555Z,25.50
2018-02-22T20:59:25.507Z,26.37
2018-02-22T21:01:54.396Z,24.37
2018-02-22T21:04:22.628Z,25.03
2018-02-22T21:06:51.005Z,24.10
2018-02-22T21:09:19.296Z,26.67
2018-02-22T21:11:47.581Z,25.27
2018-02-22T21:14:15.744Z,27.73
2018-02-22T21:16:43.932Z,25.43
2018-02-22T21:19:15.105Z,25.00
2018-02-22T21:21:43.256Z,26.10
2018-02-22T21:24:11.563Z,24.50
2018-02-22T21:26:39.765Z,24.27
2018-02-22T21:29:08.019Z,26.27
2018-02-22T21:31:36.355Z,24.87
2018-02-22T21:34:04.582Z,26.67
2018-02-22T21:36:33.034Z,25.90
2018-02-22T21:39:01.981Z,26.13
2018-02-22T21:41:30.143Z,28.47
2018-02-22T21:43:59.134Z,26.33
2018-02-22T21:46:27.378Z,27.47
2018-02-22T21:48:55.543Z,27.47
2018-02-22T21:51:24.464Z,27.00
2018-02-22T21:53:52.654Z,27.17
2018-02-22T21:56:20.827Z,27.53
2018-02-22T21:58:54.248Z,26.60
2018-02-22T22:01:23.537Z,26.80
2018-02-22T22:03:51.702Z,25.40
2018-02-22T22:06:19.894Z,25.67
2018-02-22T22:08:48.072Z,25.73
2018-02-22T22:11:16.209Z,27.10
2018-02-22T22:13:44.491Z,25.70
2018-02-22T22:16:12.690Z,26.77
2018-02-22T22:18:40.852Z,25.50
2018-02-22T22:21:09.131Z,26.03
2018-02-22T22:23:37.405Z,25.70
2018-02-22T22:26:05.581Z,26.50
2018-02-22T22:28:33.786Z,26.70
2018-02-22T22:31:02.709Z,25.90
2018-02-22T22:33:30.941Z,28.13
2018-02-22T22:35:59.238Z,25.40
2018-02-22T22:38:27.383Z,26.03
2018-02-22T22:40:55.587Z,28.77
2018-02-22T22:43:23.903Z,25.60
2018-02-22T22:45:52.072Z,28.90
2018-02-22T22:48:20.215Z,26.53
2018-02-22T22:50:48.620Z,25.90
2018-02-22T22:53:17.121Z,26.80
2018-02-22T22:55:45.286Z,26.10
2018-02-22T22:58:13.431Z,24.97
2018-02-22T23:00:42.480Z,24.67
2018-02-22T23:03:10.639Z,27.03
2018-02-22T23:05:39.032Z,24.50
2018-02-22T23:08:07.431Z,26.50
2018-02-22T23:10:35.593Z,25.57
2018-02-22T23:13:03.830Z,25.80
2018-02-22T23:15:32.047Z,26.37
2018-02-22T23:18:00.268Z,24.40
2018-02-22T23:20:28.626Z,30.77
2018-02-22T23:22:57.567Z,26.77
2018-02-22T23:25:25.719Z,25.77
2018-02-22T23:27:53.966Z,23.70
2018-02-22T23:30:23.077Z,25.50
2018-02-22T23:32:51.362Z,27.23
2018-02-22T23:35:19.540Z,25.00
2018-02-22T23:37:47.887Z,26.60
2018-02-22T23:40:31.858Z,26.60
2018-02-22T23:43:00.881Z,26.40
2018-02-22T23:45:29.078Z,27.30
2018-02-22T23:47:57.244Z,25.07
2018-02-22T23:50:25.449Z,29.40
2018-02-22T23:52:54.434Z,26.60
2018-02-22T23:55:22.721Z,26.43
2018-02-22T23:57:51.713Z,26.23
